Centenary, Indiana
Current Conditions -  °F | °C
As of 7:55 AM on Saturday 20 Dec 2014 (Local Time) from KPRG Reporting Station
Overcast Overcast  
Wind Chill: 30°   Ceiling: 4900
Heat Index: 30°   Visibility: 7mi
Dew Point: 29°   Wind: 0mph
Humidity: 94%   Direction: NA
Pressure: 30.3"   Gusts: NA
Location:  39.6513°N, 87.4607°W
Report Text: KPRG 201255Z AUTO 00000KT 7SM SCT027 BKN049 OVC065 M01/M02 A3030 RMK AO2 T10091017
Loading
Personal Weather Stations






























Interactive Weather Map New forecast layout! Learn more

10-Day Weather Forecast

Advertisements
Track Severe Weather on mobile